Blue River Airport

Airport
ICAO code: 
CYCP
Summary
ICAO Region: 
NAM
Territory: 
Location: 
Blue River, British Columbia
Serving: 
Blue River
Elevation: 
2240 ft
Coordinates: 
Aerial View: 
52° 7' 25.495" N, 119° 17' 35.329" W
Metar
Observation
CYCP 270000Z VRB02KT 15SM FEW012 SCT073 BKN090 00/00 A3004 RMK SF1CU3AC1 LAST STFD OBS/NXT 271400Z SLP204
Station
Blue River, B. C.
Date/Time
2021-11-27 00:00:00
Lowest cloud amount
n/a
Temperature
°C
Dew point
0°C
Weather condition
n/a

Runways

Designator Length Width Surface Rops
1/19 1524 18 ASP No/No
Airport map: 
Aerial View: 

Accidents and Serious Incidents at or in the vicinity of CYCP

SKYbrary Partners:

Safety knowledge contributed by: